Time;durP1;ratioP1;P1;durP2;ratioP2;P2;SDS_P1;SDS_P2;PMS_P1;PMS_P2;Temp;Humidity;BMP_temperature;BMP_pressure;BME280_temperature;BME280_humidity;BME280_pressure;Samples;Min_cycle;Max_cycle;Signal;HPM_P1;HPM_P2
2024/01/19 00:02:27;;;;;;;93.85;52.33;;;;;;;;;;4788035;30;20489;-63
2024/01/19 00:04:54;;;;;;;84.32;52.05;;;;;;;;;;4787730;30;20101;-63
2024/01/19 00:07:22;;;;;;;83.63;50.50;;;;;;;;;;4788101;30;20569;-63
2024/01/19 00:09:50;;;;;;;88.03;51.25;;;;;;;;;;4787707;30;20043;-63
2024/01/19 00:12:17;;;;;;;87.07;51.40;;;;;;;;;;4787948;30;20054;-64
2024/01/19 00:14:45;;;;;;;91.18;52.55;;;;;;;;;;4787950;30;20512;-63
2024/01/19 00:17:13;;;;;;;91.32;52.80;;;;;;;;;;4787084;29;20085;-63
2024/01/19 00:19:40;;;;;;;85.90;49.90;;;;;;;;;;4787823;30;20039;-63
2024/01/19 00:22:08;;;;;;;87.93;50.95;;;;;;;;;;4786791;30;20047;-63
2024/01/19 00:24:35;;;;;;;88.05;50.47;;;;;;;;;;4787739;30;20089;-63
2024/01/19 00:27:03;;;;;;;91.03;52.08;;;;;;;;;;4787813;30;20059;-63
2024/01/19 00:29:31;;;;;;;89.13;52.88;;;;;;;;;;4787686;30;20082;-64
2024/01/19 00:31:59;;;;;;;92.72;53.05;;;;;;;;;;4787611;30;20062;-64
2024/01/19 00:34:26;;;;;;;90.07;51.50;;;;;;;;;;4787910;30;20049;-64
2024/01/19 00:36:54;;;;;;;90.38;53.92;;;;;;;;;;4787715;30;20130;-64
2024/01/19 00:39:21;;;;;;;92.18;53.88;;;;;;;;;;4787945;30;20043;-64
2024/01/19 00:41:49;;;;;;;89.82;52.92;;;;;;;;;;4787425;30;20055;-65
2024/01/19 00:44:17;;;;;;;92.00;52.95;;;;;;;;;;4787668;30;20399;-64
2024/01/19 00:46:44;;;;;;;91.10;54.33;;;;;;;;;;4787513;30;20063;-63
2024/01/19 00:49:12;;;;;;;96.07;53.90;;;;;;;;;;4787444;30;20039;-64
2024/01/19 00:51:39;;;;;;;89.50;53.72;;;;;;;;;;4787482;30;20111;-64
2024/01/19 00:54:07;;;;;;;91.70;53.58;;;;;;;;;;4787479;30;20046;-64
2024/01/19 00:56:35;;;;;;;92.65;55.72;;;;;;;;;;4771570;30;20051;-64
2024/01/19 00:59:03;;;;;;;90.80;52.25;;;;;;;;;;4787378;30;20055;-63
2024/01/19 01:01:31;;;;;;;94.20;54.00;;;;;;;;;;4787360;30;20143;-63
2024/01/19 01:03:58;;;;;;;91.93;53.45;;;;;;;;;;4771007;30;20521;-64
2024/01/19 01:06:26;;;;;;;92.32;51.70;;;;;;;;;;4771242;30;20122;-64
2024/01/19 01:08:58;;;;;;;86.60;51.05;;;;;;;;;;4787345;30;20070;-64
2024/01/19 01:11:27;;;;;;;90.75;51.92;;;;;;;;;;4787399;30;20046;-63
2024/01/19 01:13:55;;;;;;;89.00;50.95;;;;;;;;;;4787018;30;20055;-64
2024/01/19 01:16:23;;;;;;;89.20;50.17;;;;;;;;;;4771093;30;20047;-64
2024/01/19 01:18:50;;;;;;;85.55;49.58;;;;;;;;;;4787411;30;20189;-64
2024/01/19 01:21:18;;;;;;;85.43;51.67;;;;;;;;;;4771373;30;20071;-65
2024/01/19 01:23:46;;;;;;;87.68;49.50;;;;;;;;;;4787100;30;20048;-64
2024/01/19 01:26:13;;;;;;;84.15;48.92;;;;;;;;;;4787477;30;20063;-65
2024/01/19 01:28:41;;;;;;;84.05;49.80;;;;;;;;;;4773747;30;20494;-64
2024/01/19 01:31:09;;;;;;;84.35;48.75;;;;;;;;;;4790489;30;20145;-65
2024/01/19 01:33:37;;;;;;;81.28;47.42;;;;;;;;;;4774544;30;20469;-65
2024/01/19 01:36:05;;;;;;;85.53;50.83;;;;;;;;;;4774564;30;20393;-64
2024/01/19 01:38:33;;;;;;;88.10;50.40;;;;;;;;;;4790648;30;20071;-65
2024/01/19 01:41:00;;;;;;;87.95;51.42;;;;;;;;;;4790637;30;20070;-65
2024/01/19 01:43:28;;;;;;;92.32;51.78;;;;;;;;;;4790516;30;20043;-64
2024/01/19 01:45:55;;;;;;;89.57;52.13;;;;;;;;;;4790336;30;20062;-65
2024/01/19 01:48:24;;;;;;;90.13;50.33;;;;;;;;;;4774440;30;20047;-65
2024/01/19 01:50:52;;;;;;;93.88;51.75;;;;;;;;;;4790365;30;20043;-64
2024/01/19 01:53:21;;;;;;;90.22;49.42;;;;;;;;;;4774515;30;20053;-64
2024/01/19 01:55:49;;;;;;;85.70;50.03;;;;;;;;;;4790350;30;20054;-64
2024/01/19 01:58:17;;;;;;;87.68;49.83;;;;;;;;;;4790198;30;20075;-64
2024/01/19 02:00:45;;;;;;;83.95;49.58;;;;;;;;;;4790096;30;20150;-64
2024/01/19 02:03:13;;;;;;;89.18;50.15;;;;;;;;;;4774196;30;20062;-64
2024/01/19 02:05:42;;;;;;;87.38;47.70;;;;;;;;;;4790195;30;20043;-64
2024/01/19 02:08:10;;;;;;;86.95;48.90;;;;;;;;;;4790119;30;20078;-64
2024/01/19 02:10:37;;;;;;;82.68;48.47;;;;;;;;;;4790316;30;20055;-64
2024/01/19 02:13:05;;;;;;;83.10;49.15;;;;;;;;;;4789952;30;20123;-64
2024/01/19 02:15:34;;;;;;;87.85;49.28;;;;;;;;;;4789991;30;20043;-64
2024/01/19 02:18:02;;;;;;;87.40;49.58;;;;;;;;;;4790244;30;20051;-63
2024/01/19 02:20:29;;;;;;;86.80;51.40;;;;;;;;;;4773984;30;20047;-64
2024/01/19 02:22:57;;;;;;;89.50;49.67;;;;;;;;;;4789784;30;20053;-64
2024/01/19 02:25:25;;;;;;;87.88;50.22;;;;;;;;;;4789680;30;20055;-63
2024/01/19 02:27:52;;;;;;;88.82;50.70;;;;;;;;;;4789814;30;20493;-63
2024/01/19 02:30:20;;;;;;;85.75;49.47;;;;;;;;;;4789688;30;20047;-64
2024/01/19 02:32:47;;;;;;;87.20;50.63;;;;;;;;;;4789545;30;20039;-64
2024/01/19 02:35:15;;;;;;;85.47;50.75;;;;;;;;;;4789514;30;20077;-64
2024/01/19 02:37:43;;;;;;;87.82;50.58;;;;;;;;;;4789864;30;20569;-64
2024/01/19 02:40:10;;;;;;;85.45;50.20;;;;;;;;;;4788482;30;20151;-64
2024/01/19 02:42:38;;;;;;;85.88;48.83;;;;;;;;;;4789474;30;20047;-64
2024/01/19 02:45:06;;;;;;;91.63;51.58;;;;;;;;;;4773279;30;20050;-64
2024/01/19 02:47:33;;;;;;;83.63;48.70;;;;;;;;;;4789376;30;20055;-63
2024/01/19 02:50:02;;;;;;;91.68;51.35;;;;;;;;;;4773200;30;20043;-64
2024/01/19 02:52:30;;;;;;;92.03;51.58;;;;;;;;;;4773500;30;20074;-64
2024/01/19 02:54:57;;;;;;;91.22;52.05;;;;;;;;;;4789290;30;20043;-64
2024/01/19 02:57:25;;;;;;;90.82;51.28;;;;;;;;;;4789179;30;20052;-63
2024/01/19 02:59:53;;;;;;;93.82;53.13;;;;;;;;;;4789404;30;20057;-64
2024/01/19 03:02:20;;;;;;;92.25;52.70;;;;;;;;;;4789095;30;20058;-64
2024/01/19 03:04:48;;;;;;;91.80;52.38;;;;;;;;;;4773385;30;20040;-64
2024/01/19 03:07:15;;;;;;;94.75;53.50;;;;;;;;;;4789084;30;20050;-64
2024/01/19 03:09:43;;;;;;;92.43;53.03;;;;;;;;;;4789035;30;20039;-63
2024/01/19 03:12:10;;;;;;;93.95;52.50;;;;;;;;;;4788964;30;20105;-64
2024/01/19 03:14:38;;;;;;;94.65;52.13;;;;;;;;;;4788897;30;20047;-63
2024/01/19 03:17:06;;;;;;;93.80;51.55;;;;;;;;;;4772710;30;20464;-64
2024/01/19 03:19:33;;;;;;;91.10;52.58;;;;;;;;;;4772941;30;20055;-63
2024/01/19 03:22:01;;;;;;;91.32;54.10;;;;;;;;;;4788829;30;20075;-63
2024/01/19 03:24:29;;;;;;;99.35;55.65;;;;;;;;;;4788583;30;20052;-63
2024/01/19 03:26:57;;;;;;;97.38;53.75;;;;;;;;;;4788273;30;20047;-64
2024/01/19 03:29:26;;;;;;;90.75;52.15;;;;;;;;;;4788651;30;20050;-64
2024/01/19 03:31:53;;;;;;;92.95;52.53;;;;;;;;;;4788619;30;20044;-64
2024/01/19 03:34:21;;;;;;;90.72;51.83;;;;;;;;;;4788339;30;20058;-63
2024/01/19 03:36:49;;;;;;;89.38;49.88;;;;;;;;;;4788537;30;20134;-63
2024/01/19 03:39:17;;;;;;;90.10;52.88;;;;;;;;;;4788761;30;20138;-65
2024/01/19 03:41:44;;;;;;;88.63;50.70;;;;;;;;;;4788450;30;20489;-64
2024/01/19 03:44:12;;;;;;;89.43;50.85;;;;;;;;;;4788505;30;20183;-63
2024/01/19 03:46:40;;;;;;;89.30;51.78;;;;;;;;;;4788381;30;20448;-64
2024/01/19 03:49:08;;;;;;;92.70;51.90;;;;;;;;;;4772651;30;20677;-64
2024/01/19 03:51:36;;;;;;;90.13;52.50;;;;;;;;;;4788142;29;20086;-64
2024/01/19 03:54:03;;;;;;;92.03;51.90;;;;;;;;;;4788102;30;20145;-63
2024/01/19 03:56:31;;;;;;;95.68;51.63;;;;;;;;;;4788143;30;20050;-63
2024/01/19 03:58:58;;;;;;;94.28;51.50;;;;;;;;;;4788195;30;20490;-64
2024/01/19 04:01:26;;;;;;;94.72;54.00;;;;;;;;;;4787997;30;20055;-64
2024/01/19 04:03:54;;;;;;;91.85;52.05;;;;;;;;;;4788086;30;20512;-64
2024/01/19 04:06:21;;;;;;;93.95;53.00;;;;;;;;;;4788108;30;20051;-64
2024/01/19 04:08:49;;;;;;;94.80;52.08;;;;;;;;;;4788093;30;20569;-64
2024/01/19 04:11:17;;;;;;;87.82;49.75;;;;;;;;;;4787263;30;20047;-64
2024/01/19 04:13:45;;;;;;;86.00;49.55;;;;;;;;;;4787225;29;20405;-64
2024/01/19 04:16:15;;;;;;;92.35;51.13;;;;;;;;;;4787844;30;20044;-64
2024/01/19 04:18:43;;;;;;;83.40;48.88;;;;;;;;;;4787778;30;20058;-63
2024/01/19 04:21:11;;;;;;;85.07;47.65;;;;;;;;;;4787827;29;20054;-64
2024/01/19 04:23:40;;;;;;;83.28;48.92;;;;;;;;;;4787598;30;20052;-64
2024/01/19 04:26:07;;;;;;;84.72;47.30;;;;;;;;;;4787835;29;20126;-64
2024/01/19 04:28:35;;;;;;;83.07;46.97;;;;;;;;;;4787836;29;20129;-64
2024/01/19 04:31:02;;;;;;;80.05;47.40;;;;;;;;;;4787704;29;20437;-64
2024/01/19 04:33:30;;;;;;;87.45;48.78;;;;;;;;;;4787652;30;20050;-64
2024/01/19 04:35:58;;;;;;;82.20;47.88;;;;;;;;;;4787643;29;20047;-64
2024/01/19 04:38:26;;;;;;;83.70;48.47;;;;;;;;;;4787564;30;20040;-64
2024/01/19 04:40:54;;;;;;;81.90;47.45;;;;;;;;;;4786341;30;20051;-65
2024/01/19 04:43:21;;;;;;;81.25;47.55;;;;;;;;;;4787537;30;20055;-64
2024/01/19 04:45:49;;;;;;;86.40;46.28;;;;;;;;;;4787628;29;20043;-64
2024/01/19 04:48:16;;;;;;;87.43;47.65;;;;;;;;;;4786082;29;20044;-64
2024/01/19 04:50:44;;;;;;;78.35;47.25;;;;;;;;;;4784298;30;20575;-64
2024/01/19 04:53:12;;;;;;;81.03;47.97;;;;;;;;;;4799638;29;20052;-63
2024/01/19 04:55:39;;;;;;;88.68;49.33;;;;;;;;;;4786129;29;20048;-63
2024/01/19 04:58:07;;;;;;;86.85;50.22;;;;;;;;;;4799729;29;20499;-64
2024/01/19 05:00:34;;;;;;;86.47;49.70;;;;;;;;;;4786764;30;20784;-64
2024/01/19 05:03:03;;;;;;;88.68;51.58;;;;;;;;;;4788807;29;20051;-63
2024/01/19 05:05:31;;;;;;;91.78;50.63;;;;;;;;;;4791127;29;20495;-64
2024/01/19 05:08:00;;;;;;;106.57;58.47;;;;;;;;;;4790936;30;20051;-64
2024/01/19 05:10:27;;;;;;;94.38;52.72;;;;;;;;;;4791033;29;20067;-64
2024/01/19 05:12:55;;;;;;;96.72;54.25;;;;;;;;;;4789683;30;20047;-64
2024/01/19 05:15:23;;;;;;;93.93;54.35;;;;;;;;;;4790851;29;20130;-64
2024/01/19 05:17:50;;;;;;;105.47;58.97;;;;;;;;;;4790897;30;20470;-64
2024/01/19 05:20:18;;;;;;;108.10;58.90;;;;;;;;;;4790790;30;20401;-64
2024/01/19 05:22:46;;;;;;;97.13;55.63;;;;;;;;;;4790786;29;20051;-64
2024/01/19 05:25:18;;;;;;;87.25;51.75;;;;;;;;;;4790823;30;20043;-64
2024/01/19 05:27:45;;;;;;;99.65;52.97;;;;;;;;;;4790632;29;20434;-64
2024/01/19 05:30:13;;;;;;;92.00;51.30;;;;;;;;;;4804545;29;20586;-64
2024/01/19 05:32:41;;;;;;;92.60;50.45;;;;;;;;;;4790588;29;20055;-65
2024/01/19 05:35:09;;;;;;;91.65;50.25;;;;;;;;;;4789404;30;20396;-64
2024/01/19 05:37:38;;;;;;;86.20;49.22;;;;;;;;;;4790322;30;20043;-64
2024/01/19 05:40:05;;;;;;;88.95;50.47;;;;;;;;;;4789461;30;20509;-64
2024/01/19 05:42:33;;;;;;;85.50;49.47;;;;;;;;;;4790497;29;20076;-64
2024/01/19 05:45:01;;;;;;;93.43;49.65;;;;;;;;;;4790337;30;20053;-64
2024/01/19 05:47:29;;;;;;;85.10;48.05;;;;;;;;;;4790356;30;20043;-64
2024/01/19 05:49:56;;;;;;;89.82;50.88;;;;;;;;;;4790330;29;20510;-64
2024/01/19 05:52:24;;;;;;;90.28;52.22;;;;;;;;;;4790406;29;20126;-64
2024/01/19 05:54:52;;;;;;;90.68;52.00;;;;;;;;;;4790223;30;20039;-64
2024/01/19 05:57:19;;;;;;;85.78;48.95;;;;;;;;;;4789420;29;20053;-64
2024/01/19 05:59:48;;;;;;;93.68;50.25;;;;;;;;;;4790144;30;20047;-64
2024/01/19 06:02:15;;;;;;;90.75;49.78;;;;;;;;;;4788751;30;20057;-64
2024/01/19 06:04:43;;;;;;;85.05;50.30;;;;;;;;;;4790184;29;20100;-64
2024/01/19 06:07:10;;;;;;;87.53;50.22;;;;;;;;;;4790017;29;20043;-64
2024/01/19 06:09:38;;;;;;;91.65;50.00;;;;;;;;;;4790009;29;20138;-64
2024/01/19 06:12:06;;;;;;;86.30;50.30;;;;;;;;;;4790041;29;20043;-64
2024/01/19 06:14:34;;;;;;;84.88;48.10;;;;;;;;;;4788769;29;20177;-64
2024/01/19 06:17:03;;;;;;;90.30;49.13;;;;;;;;;;4790168;30;20070;-64
2024/01/19 06:19:30;;;;;;;91.35;49.88;;;;;;;;;;4783013;30;20039;-64
2024/01/19 06:21:58;;;;;;;100.10;52.08;;;;;;;;;;4789348;30;20058;-65
2024/01/19 06:24:25;;;;;;;86.68;48.00;;;;;;;;;;4787008;30;20051;-64
2024/01/19 06:26:53;;;;;;;90.22;49.85;;;;;;;;;;4789648;30;20055;-65
2024/01/19 06:29:21;;;;;;;94.68;52.25;;;;;;;;;;4789720;30;20054;-65
2024/01/19 06:31:49;;;;;;;92.28;50.58;;;;;;;;;;4789690;30;20075;-64
2024/01/19 06:34:17;;;;;;;109.30;59.95;;;;;;;;;;4788864;30;20059;-64
2024/01/19 06:36:44;;;;;;;105.95;57.88;;;;;;;;;;4789662;30;20047;-65
2024/01/19 06:39:13;;;;;;;91.70;54.08;;;;;;;;;;4789578;30;20068;-65
2024/01/19 06:41:44;;;;;;;85.43;46.97;;;;;;;;;;4788315;30;20084;-63
2024/01/19 06:44:12;;;;;;;88.38;48.40;;;;;;;;;;4789415;30;20534;-64
2024/01/19 06:46:46;;;;;;;82.97;47.72;;;;;;;;;;4789460;30;20039;-64
2024/01/19 06:49:14;;;;;;;87.10;48.88;;;;;;;;;;4788475;30;20055;-64
2024/01/19 06:51:42;;;;;;;84.75;47.97;;;;;;;;;;4789374;30;20101;-64
2024/01/19 06:54:10;;;;;;;83.50;48.80;;;;;;;;;;4789297;30;20414;-64
2024/01/19 06:56:37;;;;;;;75.93;45.78;;;;;;;;;;4789329;30;20047;-63
2024/01/19 06:59:05;;;;;;;70.53;43.38;;;;;;;;;;4789252;30;20494;-63
2024/01/19 07:01:34;;;;;;;69.97;42.75;;;;;;;;;;4787991;30;20047;-63
2024/01/19 07:04:02;;;;;;;68.63;43.83;;;;;;;;;;4789184;30;20406;-63
2024/01/19 07:06:31;;;;;;;74.78;43.58;;;;;;;;;;4789412;30;20122;-63
2024/01/19 07:08:59;;;;;;;73.50;42.63;;;;;;;;;;4789307;30;20055;-64
2024/01/19 07:11:27;;;;;;;81.53;46.53;;;;;;;;;;4787932;30;20074;-63
2024/01/19 07:13:57;;;;;;;82.97;47.40;;;;;;;;;;4787746;30;20446;-63
2024/01/19 07:16:24;;;;;;;79.07;44.50;;;;;;;;;;4788907;30;20047;-63
2024/01/19 07:18:52;;;;;;;71.00;42.30;;;;;;;;;;4788944;30;20052;-63
2024/01/19 07:21:20;;;;;;;71.72;42.90;;;;;;;;;;4788804;29;20092;-63
2024/01/19 07:23:48;;;;;;;69.38;42.50;;;;;;;;;;4788686;30;20538;-64
2024/01/19 07:26:19;;;;;;;68.60;42.10;;;;;;;;;;4788308;29;20043;-63
2024/01/19 07:28:47;;;;;;;76.85;47.13;;;;;;;;;;4788749;30;20119;-63
2024/01/19 07:31:14;;;;;;;84.00;50.83;;;;;;;;;;4788986;30;20051;-64
2024/01/19 07:33:42;;;;;;;87.85;49.20;;;;;;;;;;4788647;30;20096;-63
2024/01/19 07:36:12;;;;;;;87.70;46.58;;;;;;;;;;4788711;30;20043;-63
2024/01/19 07:38:40;;;;;;;68.82;40.78;;;;;;;;;;4788648;30;20069;-63
2024/01/19 07:41:08;;;;;;;88.93;41.70;;;;;;;;;;4788373;30;20085;-63
2024/01/19 07:43:35;;;;;;;72.45;40.65;;;;;;;;;;4788290;30;20051;-64
2024/01/19 07:46:03;;;;;;;77.05;40.90;;;;;;;;;;4788522;30;20050;-64
2024/01/19 07:48:31;;;;;;;71.25;40.53;;;;;;;;;;4788440;30;20047;-63
2024/01/19 07:51:02;;;;;;;76.82;41.40;;;;;;;;;;4788630;30;20387;-64
2024/01/19 07:53:31;;;;;;;77.00;41.40;;;;;;;;;;4788319;30;20051;-64
2024/01/19 07:55:59;;;;;;;67.53;40.53;;;;;;;;;;4788162;30;20051;-63
2024/01/19 07:58:27;;;;;;;69.60;41.28;;;;;;;;;;4787137;30;20101;-64
2024/01/19 08:00:55;;;;;;;68.88;40.35;;;;;;;;;;4788526;30;20043;-63
2024/01/19 08:03:23;;;;;;;78.45;41.70;;;;;;;;;;4788135;30;20108;-64
2024/01/19 08:05:50;;;;;;;75.50;41.63;;;;;;;;;;4788465;30;20055;-64
2024/01/19 08:08:18;;;;;;;71.75;41.58;;;;;;;;;;4788073;30;20075;-64
2024/01/19 08:10:46;;;;;;;64.97;39.60;;;;;;;;;;4787184;30;20712;-64
2024/01/19 08:13:14;;;;;;;62.88;40.13;;;;;;;;;;4788094;30;20054;-64
2024/01/19 08:15:41;;;;;;;69.13;39.42;;;;;;;;;;4786709;30;20391;-63
2024/01/19 08:18:09;;;;;;;60.45;39.45;;;;;;;;;;4788163;30;20044;-63
2024/01/19 08:20:37;;;;;;;58.47;37.80;;;;;;;;;;4801769;29;20309;-63
2024/01/19 08:23:04;;;;;;;64.18;41.00;;;;;;;;;;4786572;30;20051;-63
2024/01/19 08:25:32;;;;;;;58.80;36.83;;;;;;;;;;4787600;30;20055;-63
2024/01/19 08:28:00;;;;;;;60.88;38.35;;;;;;;;;;4787856;30;20043;-64
2024/01/19 08:30:28;;;;;;;62.38;40.13;;;;;;;;;;4787769;30;20485;-64
2024/01/19 08:32:55;;;;;;;54.88;35.50;;;;;;;;;;4787781;30;20087;-64
2024/01/19 08:35:23;;;;;;;56.60;34.78;;;;;;;;;;4787966;30;20051;-64
2024/01/19 08:37:50;;;;;;;57.35;34.85;;;;;;;;;;4786821;30;20566;-63
2024/01/19 08:40:19;;;;;;;57.83;35.30;;;;;;;;;;4786490;30;20058;-63
2024/01/19 08:42:46;;;;;;;58.97;36.20;;;;;;;;;;4787599;30;20050;-64
2024/01/19 08:45:14;;;;;;;63.20;36.60;;;;;;;;;;4787950;30;20104;-63
2024/01/19 08:47:41;;;;;;;53.65;34.50;;;;;;;;;;4787528;30;20122;-63
2024/01/19 08:50:09;;;;;;;53.35;34.17;;;;;;;;;;4786518;29;20049;-63
2024/01/19 08:52:37;;;;;;;48.95;32.00;;;;;;;;;;4787869;30;20039;-63
2024/01/19 08:55:05;;;;;;;52.35;32.10;;;;;;;;;;4787487;30;20134;-64
2024/01/19 08:57:32;;;;;;;54.10;31.92;;;;;;;;;;4787449;30;20109;-64
2024/01/19 09:00:00;;;;;;;54.22;32.55;;;;;;;;;;4787424;30;20051;-64
2024/01/19 09:02:28;;;;;;;50.45;34.13;;;;;;;;;;4787498;30;20040;-64
2024/01/19 09:04:55;;;;;;;50.85;33.00;;;;;;;;;;4787422;30;20421;-63
2024/01/19 09:07:23;;;;;;;52.42;32.78;;;;;;;;;;4787452;30;20061;-63
2024/01/19 09:09:51;;;;;;;45.72;31.85;;;;;;;;;;4787319;30;20769;-64
2024/01/19 09:12:19;;;;;;;44.00;30.08;;;;;;;;;;4787369;30;20071;-64
2024/01/19 09:14:46;;;;;;;45.42;30.08;;;;;;;;;;4787444;30;20397;-64
2024/01/19 09:17:14;;;;;;;46.08;29.88;;;;;;;;;;4787343;30;20047;-63
2024/01/19 09:19:41;;;;;;;40.28;27.25;;;;;;;;;;4787349;30;20047;-63
2024/01/19 09:22:09;;;;;;;39.78;26.98;;;;;;;;;;4787200;30;20122;-64
2024/01/19 09:24:36;;;;;;;41.63;27.38;;;;;;;;;;4785684;30;20083;-64
2024/01/19 09:27:04;;;;;;;41.42;27.02;;;;;;;;;;4787322;30;20055;-64
2024/01/19 09:29:32;;;;;;;37.83;26.30;;;;;;;;;;4787204;30;20054;-64
2024/01/19 09:31:59;;;;;;;37.08;25.65;;;;;;;;;;4787123;30;20071;-64
2024/01/19 09:34:28;;;;;;;36.40;23.63;;;;;;;;;;4787183;30;20498;-64
2024/01/19 09:36:55;;;;;;;37.97;24.02;;;;;;;;;;4785986;30;20066;-63
2024/01/19 09:39:23;;;;;;;32.42;23.70;;;;;;;;;;4787223;30;20413;-64
2024/01/19 09:41:52;;;;;;;32.70;22.73;;;;;;;;;;4787405;30;20051;-64
2024/01/19 09:44:21;;;;;;;33.17;23.67;;;;;;;;;;4787101;30;20062;-64
2024/01/19 09:46:57;;;;;;;37.38;25.38;;;;;;;;;;4787072;30;20051;-64
2024/01/19 09:49:25;;;;;;;33.45;23.17;;;;;;;;;;4789343;29;20051;-63
2024/01/19 09:52:03;;;;;;;31.15;23.35;;;;;;;;;;4789197;30;20058;-64
2024/01/19 09:54:35;;;;;;;36.08;24.50;;;;;;;;;;4790338;30;20058;-64
2024/01/19 09:57:04;;;;;;;33.20;23.65;;;;;;;;;;4790354;30;20059;-64
2024/01/19 09:59:32;;;;;;;34.50;23.92;;;;;;;;;;4790326;30;20052;-64
2024/01/19 10:02:01;;;;;;;34.63;23.63;;;;;;;;;;4790019;30;20418;-64
2024/01/19 10:04:29;;;;;;;32.15;22.10;;;;;;;;;;4788914;30;20405;-64
2024/01/19 10:06:57;;;;;;;32.80;22.05;;;;;;;;;;4789002;30;20118;-64
2024/01/19 10:09:25;;;;;;;33.33;22.17;;;;;;;;;;4790450;30;20134;-64
2024/01/19 10:11:53;;;;;;;28.17;20.33;;;;;;;;;;4790109;30;20116;-64
2024/01/19 10:14:23;;;;;;;29.13;19.83;;;;;;;;;;4790117;30;20051;-64
2024/01/19 10:16:53;;;;;;;25.63;17.88;;;;;;;;;;4790077;30;20070;-63
2024/01/19 10:19:21;;;;;;;25.67;18.85;;;;;;;;;;4789866;30;20051;-63
2024/01/19 10:21:52;;;;;;;19.33;12.90;;;;;;;;;;4789955;30;20570;-63
2024/01/19 10:24:20;;;;;;;17.05;10.90;;;;;;;;;;4803324;29;20147;-63
2024/01/19 10:26:57;;;;;;;19.02;14.20;;;;;;;;;;4788356;30;20062;-62
2024/01/19 10:29:25;;;;;;;22.00;13.57;;;;;;;;;;4789814;29;20082;-63
2024/01/19 10:31:53;;;;;;;20.17;14.15;;;;;;;;;;4789795;30;20039;-63
2024/01/19 10:34:22;;;;;;;22.73;14.45;;;;;;;;;;4789719;30;20054;-62
2024/01/19 10:36:50;;;;;;;22.48;14.48;;;;;;;;;;4789682;30;20565;-62
2024/01/19 10:39:21;;;;;;;24.17;15.73;;;;;;;;;;4788388;30;20080;-63
2024/01/19 10:41:50;;;;;;;24.20;15.52;;;;;;;;;;4789911;30;20058;-62
2024/01/19 10:44:19;;;;;;;23.17;14.73;;;;;;;;;;4789447;30;20074;-63
2024/01/19 10:46:50;;;;;;;24.42;16.80;;;;;;;;;;4789424;30;20035;-64
2024/01/19 10:49:19;;;;;;;22.77;15.90;;;;;;;;;;4789523;30;20058;-63
2024/01/19 10:51:47;;;;;;;22.48;16.35;;;;;;;;;;4789415;30;20051;-63
2024/01/19 10:54:24;;;;;;;21.88;15.00;;;;;;;;;;4788173;30;20387;-63
2024/01/19 10:57:05;;;;;;;21.40;13.63;;;;;;;;;;4789311;30;20055;-63
2024/01/19 10:59:34;;;;;;;21.10;14.68;;;;;;;;;;4788814;29;20044;-63
2024/01/19 11:02:03;;;;;;;21.08;12.73;;;;;;;;;;4789301;29;20478;-63
2024/01/19 11:04:32;;;;;;;20.83;13.18;;;;;;;;;;4789054;30;20056;-64
2024/01/19 11:07:00;;;;;;;29.75;13.98;;;;;;;;;;4789145;30;20563;-64
2024/01/19 11:09:29;;;;;;;19.15;13.88;;;;;;;;;;4788026;30;20051;-64
2024/01/19 11:11:58;;;;;;;22.25;14.07;;;;;;;;;;4789142;30;20078;-64
2024/01/19 11:14:27;;;;;;;19.75;13.85;;;;;;;;;;4789296;30;20060;-65
2024/01/19 11:16:55;;;;;;;20.13;14.18;;;;;;;;;;4789113;30;20101;-64
2024/01/19 11:19:24;;;;;;;24.98;14.95;;;;;;;;;;4788927;30;20568;-64
2024/01/19 11:21:52;;;;;;;17.08;11.40;;;;;;;;;;4788764;30;20043;-63
2024/01/19 11:24:24;;;;;;;16.00;10.32;;;;;;;;;;4788723;30;20081;-65
2024/01/19 11:27:12;;;;;;;16.20;10.88;;;;;;;;;;4788789;30;20039;-64
2024/01/19 11:29:52;;;;;;;16.77;11.40;;;;;;;;;;4802781;29;20391;-64
2024/01/19 11:32:19;;;;;;;18.05;11.93;;;;;;;;;;4788710;29;20051;-64
2024/01/19 11:34:49;;;;;;;18.77;11.85;;;;;;;;;;4788705;30;20083;-66
2024/01/19 11:37:37;;;;;;;15.40;11.13;;;;;;;;;;4788650;30;20043;-65
2024/01/19 11:40:05;;;;;;;14.45;9.93;;;;;;;;;;4788645;30;20084;-64
2024/01/19 11:42:36;;;;;;;18.33;11.30;;;;;;;;;;4787625;30;20062;-64
2024/01/19 11:45:03;;;;;;;16.85;11.32;;;;;;;;;;4787331;30;20051;-64
2024/01/19 11:47:37;;;;;;;17.83;11.88;;;;;;;;;;4788456;30;20122;-64
2024/01/19 11:50:06;;;;;;;29.50;15.68;;;;;;;;;;4786974;30;20051;-64
2024/01/19 11:52:41;;;;;;;18.77;12.13;;;;;;;;;;4787355;30;20047;-65
2024/01/19 11:55:27;;;;;;;34.15;17.25;;;;;;;;;;4787291;30;20059;-65
2024/01/19 11:57:57;;;;;;;23.55;14.30;;;;;;;;;;4802345;29;20047;-65
2024/01/19 12:00:25;;;;;;;25.80;13.68;;;;;;;;;;4788191;30;20440;-65
2024/01/19 12:02:56;;;;;;;21.30;13.88;;;;;;;;;;4801988;29;20501;-65
2024/01/19 12:05:24;;;;;;;44.85;22.27;;;;;;;;;;4787302;30;20043;-64
2024/01/19 12:08:01;;;;;;;254.55;165.85;;;;;;;;;;4788137;30;20043;-63
2024/01/19 12:10:29;;;;;;;68.80;35.60;;;;;;;;;;4788189;29;20059;-62
2024/01/19 12:12:58;;;;;;;30.63;17.92;;;;;;;;;;4787673;29;20506;-63
2024/01/19 12:15:25;;;;;;;22.58;14.43;;;;;;;;;;4788021;30;20047;-64
2024/01/19 12:17:53;;;;;;;25.08;15.02;;;;;;;;;;4787788;30;20054;-64
2024/01/19 12:20:23;;;;;;;26.30;16.35;;;;;;;;;;4787873;30;20488;-63
2024/01/19 12:22:57;;;;;;;28.00;15.52;;;;;;;;;;4787721;30;20063;-64
2024/01/19 12:25:26;;;;;;;32.30;17.40;;;;;;;;;;4787714;29;20073;-65
2024/01/19 12:28:04;;;;;;;21.90;13.05;;;;;;;;;;4787748;30;20036;-64
2024/01/19 12:30:32;;;;;;;26.55;14.43;;;;;;;;;;4787827;30;20058;-64
2024/01/19 12:33:14;;;;;;;20.85;12.13;;;;;;;;;;4787738;30;20118;-78
2024/01/19 12:35:42;;;;;;;21.63;12.75;;;;;;;;;;4787747;30;20067;-78
2024/01/19 12:38:10;;;;;;;18.70;12.55;;;;;;;;;;4786452;30;20051;-79
2024/01/19 12:40:40;;;;;;;19.38;11.98;;;;;;;;;;4786700;30;20055;-69
2024/01/19 12:43:09;;;;;;;17.65;11.75;;;;;;;;;;4787559;30;20126;-70
2024/01/19 12:45:39;;;;;;;18.58;12.70;;;;;;;;;;4786402;29;20075;-66
2024/01/19 12:48:25;;;;;;;20.30;12.80;;;;;;;;;;4787712;30;20043;-73
2024/01/19 12:51:08;;;;;;;18.10;12.43;;;;;;;;;;4787624;30;20047;-74
2024/01/19 12:53:36;;;;;;;20.15;12.63;;;;;;;;;;4787620;30;20051;-72
2024/01/19 12:56:26;;;;;;;19.00;12.32;;;;;;;;;;4786444;30;20047;-72
2024/01/19 12:59:07;;;;;;;16.08;11.50;;;;;;;;;;4787533;30;20071;-72
2024/01/19 13:01:36;;;;;;;19.55;13.93;;;;;;;;;;4787677;30;20108;-72
2024/01/19 13:04:03;;;;;;;19.08;13.07;;;;;;;;;;4787595;30;20407;-72
2024/01/19 13:06:31;;;;;;;19.67;14.45;;;;;;;;;;4787474;30;20139;-72
2024/01/19 13:09:00;;;;;;;21.98;14.52;;;;;;;;;;4786224;30;20090;-72
2024/01/19 13:11:27;;;;;;;21.42;14.82;;;;;;;;;;4787368;30;20053;-72
2024/01/19 13:14:04;;;;;;;21.15;13.25;;;;;;;;;;4786086;30;20099;-73
2024/01/19 13:16:34;;;;;;;21.95;14.32;;;;;;;;;;4787442;30;20071;-71
2024/01/19 13:19:10;;;;;;;20.30;13.70;;;;;;;;;;4787247;30;20047;-71
2024/01/19 13:21:38;;;;;;;20.83;12.20;;;;;;;;;;4800989;29;20055;-72
2024/01/19 13:24:06;;;;;;;18.50;11.13;;;;;;;;;;4788988;29;20406;-72
2024/01/19 13:26:34;;;;;;;15.52;10.52;;;;;;;;;;4790713;30;20054;-72
2024/01/19 13:29:01;;;;;;;17.58;10.30;;;;;;;;;;4790765;30;20131;-71
2024/01/19 13:31:29;;;;;;;15.00;9.93;;;;;;;;;;4790735;30;20060;-73
2024/01/19 13:33:57;;;;;;;14.10;10.45;;;;;;;;;;4790612;30;20450;-72
2024/01/19 13:36:25;;;;;;;20.23;12.93;;;;;;;;;;4790581;30;20043;-72
2024/01/19 13:38:53;;;;;;;21.15;13.27;;;;;;;;;;4789389;30;20489;-72
2024/01/19 13:41:21;;;;;;;19.40;12.48;;;;;;;;;;4789635;29;20054;-72
2024/01/19 13:43:48;;;;;;;20.85;12.48;;;;;;;;;;4774286;30;20108;-72
2024/01/19 13:46:16;;;;;;;28.63;17.88;;;;;;;;;;4790496;30;20490;-72
2024/01/19 13:48:44;;;;;;;26.92;16.63;;;;;;;;;;4790871;30;20116;-72
2024/01/19 13:51:11;;;;;;;24.40;15.25;;;;;;;;;;4790765;30;20050;-72
2024/01/19 13:53:39;;;;;;;23.77;15.55;;;;;;;;;;4790421;30;20074;-72
2024/01/19 13:56:08;;;;;;;23.52;14.95;;;;;;;;;;4789140;30;20568;-72
2024/01/19 13:58:36;;;;;;;20.50;13.90;;;;;;;;;;4789257;30;20040;-72
2024/01/19 14:01:08;;;;;;;21.83;14.23;;;;;;;;;;4790157;30;20047;-72
2024/01/19 14:03:36;;;;;;;18.42;13.73;;;;;;;;;;4789003;30;20051;-72
2024/01/19 14:06:04;;;;;;;22.30;13.05;;;;;;;;;;4790363;30;20074;-72
2024/01/19 14:08:33;;;;;;;17.67;12.35;;;;;;;;;;4789193;30;20130;-71
2024/01/19 14:11:02;;;;;;;25.45;17.08;;;;;;;;;;4790097;30;20055;-71
2024/01/19 14:13:30;;;;;;;29.83;20.23;;;;;;;;;;4789936;30;20468;-71
2024/01/19 14:15:58;;;;;;;45.95;27.65;;;;;;;;;;4790011;30;20112;-71
2024/01/19 14:18:26;;;;;;;46.10;29.35;;;;;;;;;;4789918;30;20040;-71
2024/01/19 14:20:55;;;;;;;57.20;34.53;;;;;;;;;;4789800;30;20058;-73
2024/01/19 14:23:22;;;;;;;50.85;30.88;;;;;;;;;;4788691;30;20047;-71
2024/01/19 14:25:51;;;;;;;43.30;26.35;;;;;;;;;;4789714;30;20532;-71